Time;durP1;ratioP1;P1;durP2;ratioP2;P2;SDS_P1;SDS_P2;PMS_P1;PMS_P2;Temp;Humidity;BMP_temperature;BMP_pressure;BME280_temperature;BME280_humidity;BME280_pressure;Samples;Min_cycle;Max_cycle;Signal;HPM_P1;HPM_P2
2023/03/23 00:00:10;;;;;;;;;22.00;19.00;23.40;36.00;;;;;;111792;1260;49154;-64
2023/03/23 00:02:56;;;;;;;;;21.00;19.50;23.40;36.00;;;;;;111877;1259;46128;-64
2023/03/23 00:05:22;;;;;;;;;20.00;18.00;23.40;36.00;;;;;;111895;1259;56350;-65
2023/03/23 00:07:52;;;;;;;;;21.25;19.50;23.40;36.10;;;;;;111903;1259;54333;-64
2023/03/23 00:10:18;;;;;;;;;19.00;18.00;23.40;36.10;;;;;;111909;1258;49377;-64
2023/03/23 00:12:44;;;;;;;;;19.25;16.00;23.40;36.10;;;;;;111850;1259;49202;-64
2023/03/23 00:15:12;;;;;;;;;20.50;19.50;23.40;36.10;;;;;;111897;1259;46348;-63
2023/03/23 00:17:40;;;;;;;;;19.00;17.00;23.40;36.10;;;;;;111874;1259;56756;-63
2023/03/23 00:20:08;;;;;;;;;18.00;17.00;23.40;36.00;;;;;;111907;1259;53319;-63
2023/03/23 00:22:37;;;;;;;;;18.50;16.50;23.30;36.00;;;;;;111862;1255;48974;-62
2023/03/23 00:25:05;;;;;;;;;24.00;20.50;23.30;36.00;;;;;;111883;1260;49162;-63
2023/03/23 00:27:31;;;;;;;;;21.00;18.00;23.30;36.00;;;;;;111904;1255;46851;-63
2023/03/23 00:29:57;;;;;;;;;20.00;19.00;23.30;36.00;;;;;;111931;1259;56425;-63
2023/03/23 00:32:28;;;;;;;;;19.50;17.50;23.30;36.00;;;;;;111835;1260;53675;-64
2023/03/23 00:34:56;;;;;;;;;20.00;18.00;23.30;36.00;;;;;;111885;1258;49609;-63
2023/03/23 00:37:22;;;;;;;;;19.00;18.00;23.30;36.00;;;;;;111875;1259;49033;-62
2023/03/23 00:39:51;;;;;;;;;21.00;19.50;23.30;36.00;;;;;;111891;1257;48119;-63
2023/03/23 00:42:18;;;;;;;;;19.00;16.00;23.20;35.90;;;;;;111868;1259;56490;-62
2023/03/23 00:44:44;;;;;;;;;19.25;18.00;23.20;36.00;;;;;;111883;1259;53868;-62
2023/03/23 00:47:11;;;;;;;;;18.00;17.00;23.20;36.00;;;;;;111880;1257;49927;-62
2023/03/23 00:49:38;;;;;;;;;22.33;19.67;23.20;35.90;;;;;;111886;1259;49900;-63
2023/03/23 00:52:05;;;;;;;;;17.00;14.33;23.20;35.90;;;;;;111816;1256;46974;-63
2023/03/23 00:54:33;;;;;;;;;18.00;16.00;23.20;35.90;;;;;;111899;1259;56988;-62
2023/03/23 00:57:00;;;;;;;;;15.00;14.00;23.20;35.80;;;;;;111880;1255;54664;-63
2023/03/23 00:59:26;;;;;;;;;19.00;17.00;23.20;35.90;;;;;;111878;1260;49066;-65
2023/03/23 01:01:53;;;;;;;;;20.00;17.50;23.20;35.80;;;;;;111852;1259;49408;-63
2023/03/23 01:04:19;;;;;;;;;18.00;17.00;23.20;35.90;;;;;;111910;1260;45960;-63
2023/03/23 01:06:50;;;;;;;;;20.00;16.00;23.20;35.80;;;;;;111889;1259;56567;-62
2023/03/23 01:09:16;;;;;;;;;20.00;17.00;23.20;35.90;;;;;;111919;1260;54252;-62
2023/03/23 01:11:43;;;;;;;;;20.00;19.00;23.20;35.80;;;;;;111864;1259;49192;-63
2023/03/23 01:14:11;;;;;;;;;22.00;18.00;23.20;35.80;;;;;;111922;1259;49744;-63
2023/03/23 01:16:37;;;;;;;;;20.50;16.50;23.20;35.80;;;;;;111894;1255;46730;-64
2023/03/23 01:19:04;;;;;;;;;21.50;18.00;23.20;35.70;;;;;;111916;1260;57060;-64
2023/03/23 01:21:30;;;;;;;;;18.00;15.00;23.20;35.70;;;;;;111854;1259;54572;-64
2023/03/23 01:23:56;;;;;;;;;19.00;18.00;23.20;35.70;;;;;;111928;1258;49114;-64
2023/03/23 01:26:25;;;;;;;;;16.00;15.00;23.20;35.70;;;;;;111928;1258;48849;-65
2023/03/23 01:28:52;;;;;;;;;18.00;16.00;23.20;35.70;;;;;;111901;1259;46985;-63
2023/03/23 01:31:21;;;;;;;;;18.00;17.00;23.20;35.70;;;;;;111859;1259;57656;-63
2023/03/23 01:33:50;;;;;;;;;19.00;17.00;23.20;35.60;;;;;;111922;1259;53919;-64
2023/03/23 01:36:20;;;;;;;;;22.50;20.50;23.20;35.70;;;;;;111886;1259;49322;-63
2023/03/23 01:38:47;;;;;;;;;21.00;20.00;23.20;35.60;;;;;;111903;1259;49309;-63
2023/03/23 01:41:15;;;;;;;;;18.50;17.00;23.10;35.60;;;;;;111811;1260;46909;-64
2023/03/23 01:44:03;;;;;;;;;16.00;15.00;23.10;35.60;;;;;;111914;1255;56873;-64
2023/03/23 01:46:32;;;;;;;;;20.00;19.00;23.10;35.50;;;;;;111942;1255;53965;-64
2023/03/23 01:49:06;;;;;;;;;21.00;18.00;23.10;35.50;;;;;;111944;1259;49202;-64
2023/03/23 01:51:35;;;;;;;;;17.00;16.00;23.10;35.60;;;;;;111808;1255;49738;-64
2023/03/23 01:54:05;;;;;;;;;18.00;16.67;23.00;35.50;;;;;;111814;1260;46309;-64
2023/03/23 01:56:37;;;;;;;;;17.00;16.00;23.10;35.60;;;;;;111895;1257;57578;-65
2023/03/23 01:59:04;;;;;;;;;16.00;14.00;23.10;35.60;;;;;;111825;1259;53991;-65
2023/03/23 02:01:30;;;;;;;;;16.33;15.00;23.00;35.50;;;;;;111768;1260;50096;-63
2023/03/23 02:03:57;;;;;;;;;23.00;16.50;23.00;35.50;;;;;;111912;1255;50104;-63
2023/03/23 02:06:24;;;;;;;;;24.00;18.00;23.00;35.50;;;;;;111908;1259;46693;-63
2023/03/23 02:08:51;;;;;;;;;17.67;16.33;23.00;35.50;;;;;;111889;1260;56744;-63
2023/03/23 02:11:22;;;;;;;;;16.00;15.00;23.00;35.50;;;;;;111814;1259;54304;-63
2023/03/23 02:13:50;;;;;;;;;17.50;16.00;23.00;35.60;;;;;;111931;1255;49530;-64
2023/03/23 02:16:28;;;;;;;;;14.00;13.00;23.00;35.50;;;;;;111806;1261;49169;-63
2023/03/23 02:19:05;;;;;;;;;18.50;16.50;22.90;35.50;;;;;;111891;1260;47232;-64
2023/03/23 02:22:17;;;;;;;;;15.50;14.00;23.00;35.60;;;;;;111853;1260;57060;-65
2023/03/23 02:25:16;;;;;;;;;18.00;17.00;23.00;35.50;;;;;;111914;1259;53861;-65
2023/03/23 02:28:21;;;;;;;;;19.00;16.00;23.00;35.70;;;;;;111844;1260;49057;-64
2023/03/23 02:31:11;;;;;;;;;16.00;15.00;23.00;35.50;;;;;;111504;1260;49774;-64
2023/03/23 02:34:09;;;;;;;;;17.00;15.00;22.90;35.50;;;;;;111950;1256;46429;-65
2023/03/23 02:36:50;;;;;;;;;20.00;18.00;22.90;35.50;;;;;;111723;1255;57651;-65
2023/03/23 02:39:23;;;;;;;;;19.50;18.50;22.90;35.50;;;;;;111818;1260;54103;-65
2023/03/23 02:42:10;;;;;;;;;20.00;17.00;22.90;35.50;;;;;;111713;1257;49808;-63
2023/03/23 02:44:39;;;;;;;;;18.50;17.50;22.90;35.50;;;;;;111797;1261;49825;-64
2023/03/23 02:47:08;;;;;;;;;19.00;18.00;22.80;35.40;;;;;;111862;1259;46178;-64
2023/03/23 02:49:37;;;;;;;;;18.50;17.00;22.90;35.50;;;;;;111845;1260;56934;-64
2023/03/23 02:52:08;;;;;;;;;15.67;14.00;22.80;35.40;;;;;;111738;1259;54206;-64
2023/03/23 02:54:35;;;;;;;;;23.00;17.00;22.80;35.40;;;;;;111801;1260;50020;-64
2023/03/23 02:57:02;;;;;;;;;19.00;18.50;22.80;35.40;;;;;;111829;1261;49130;-64
2023/03/23 02:59:29;;;;;;;;;15.00;14.00;22.80;35.40;;;;;;111825;1260;47947;-63
2023/03/23 03:02:05;;;;;;;;;18.00;17.00;22.80;35.40;;;;;;111788;1258;56136;-64
2023/03/23 03:04:33;;;;;;;;;16.00;15.00;22.80;35.40;;;;;;111807;1261;53567;-65
2023/03/23 03:07:15;;;;;;;;;19.00;16.00;22.80;35.40;;;;;;111812;1259;49843;-64
2023/03/23 03:09:55;;;;;;;;;17.00;15.00;22.80;35.50;;;;;;111897;1258;49925;-65
2023/03/23 03:12:28;;;;;;;;;21.00;17.00;22.70;35.40;;;;;;111858;1255;46135;-65
2023/03/23 03:15:26;;;;;;;;;18.00;15.00;22.70;35.30;;;;;;111895;1259;57751;-64
2023/03/23 03:18:18;;;;;;;;;18.00;16.00;22.70;35.40;;;;;;111753;1260;54468;-64
2023/03/23 03:20:49;;;;;;;;;16.00;13.00;22.70;35.30;;;;;;111841;1257;49395;-64
2023/03/23 03:23:16;;;;;;;;;18.00;16.50;22.70;35.40;;;;;;111700;1258;49481;-64
2023/03/23 03:25:47;;;;;;;;;19.00;16.00;22.70;35.50;;;;;;111827;1260;46233;-64
2023/03/23 03:28:21;;;;;;;;;17.50;16.00;22.70;35.50;;;;;;111832;1260;57562;-65
2023/03/23 03:30:56;;;;;;;;;20.00;17.00;22.70;35.50;;;;;;111843;1261;54602;-65
2023/03/23 03:33:30;;;;;;;;;17.00;16.00;22.60;35.40;;;;;;111759;1260;49375;-65
2023/03/23 03:35:59;;;;;;;;;18.00;16.00;22.60;35.50;;;;;;111818;1259;50433;-64
2023/03/23 03:38:26;;;;;;;;;18.00;15.00;22.60;35.50;;;;;;111817;1260;46161;-64
2023/03/23 03:40:53;;;;;;;;;20.50;17.00;22.60;35.50;;;;;;111818;1260;56696;-65
2023/03/23 03:43:19;;;;;;;;;19.50;17.50;22.60;35.50;;;;;;111847;1260;54316;-64
2023/03/23 03:45:45;;;;;;;;;15.50;14.00;22.60;35.50;;;;;;111872;1259;50277;-64
2023/03/23 03:48:12;;;;;;;;;18.00;15.00;22.60;35.50;;;;;;111904;1259;50246;-64
2023/03/23 03:50:38;;;;;;;;;13.67;12.00;22.60;35.50;;;;;;111922;1259;47852;-64
2023/03/23 03:53:06;;;;;;;;;16.00;15.00;22.50;35.50;;;;;;111882;1259;57672;-63
2023/03/23 03:55:38;;;;;;;;;18.00;16.00;22.50;35.50;;;;;;111923;1255;54185;-63
2023/03/23 03:58:04;;;;;;;;;16.00;13.50;22.50;35.50;;;;;;111884;1259;50169;-63
2023/03/23 04:00:30;;;;;;;;;15.00;14.00;22.50;35.50;;;;;;111899;1255;50033;-63
2023/03/23 04:02:59;;;;;;;;;16.00;14.00;22.50;35.50;;;;;;111892;1259;46783;-63
2023/03/23 04:05:28;;;;;;;;;16.00;14.00;22.50;35.50;;;;;;111906;1259;56460;-63
2023/03/23 04:08:01;;;;;;;;;21.50;18.50;22.50;35.50;;;;;;111870;1260;54093;-63
2023/03/23 04:10:30;;;;;;;;;20.50;17.50;22.50;35.50;;;;;;111912;1259;51188;-63
2023/03/23 04:12:56;;;;;;;;;18.00;15.00;22.40;35.40;;;;;;111873;1259;50334;-63
2023/03/23 04:15:23;;;;;;;;;16.00;15.00;22.40;36.00;;;;;;111940;1259;46347;-62
2023/03/23 04:17:50;;;;;;;;;17.00;15.00;22.40;35.40;;;;;;111906;1256;57486;-62
2023/03/23 04:20:17;;;;;;;;;16.00;15.00;22.40;35.40;;;;;;111882;1259;53457;-61
2023/03/23 04:22:44;;;;;;;;;15.00;14.00;22.40;35.40;;;;;;111853;1260;49708;-61
2023/03/23 04:25:12;;;;;;;;;18.50;17.00;22.40;35.40;;;;;;111889;1259;49530;-62
2023/03/23 04:27:39;;;;;;;;;21.00;18.00;22.40;35.50;;;;;;111918;1259;47486;-62
2023/03/23 04:30:06;;;;;;;;;14.67;13.33;22.40;35.40;;;;;;111946;1259;58463;-70
2023/03/23 04:32:32;;;;;;;;;15.00;14.00;22.40;35.40;;;;;;111810;1260;54197;-65
2023/03/23 04:35:01;;;;;;;;;;;22.40;35.40;;;;;;111838;1260;49895;-66
2023/03/23 04:37:28;;;;;;;;;17.00;14.00;22.40;35.50;;;;;;111881;1260;48484;-66
2023/03/23 04:40:01;;;;;;;;;13.00;12.00;22.40;35.40;;;;;;111929;1258;46704;-66
2023/03/23 04:42:29;;;;;;;;;17.00;16.00;22.40;35.40;;;;;;111799;1259;56967;-66
2023/03/23 04:44:56;;;;;;;;;16.00;15.00;22.30;35.40;;;;;;111906;1259;54423;-62
2023/03/23 04:47:24;;;;;;;;;15.00;14.00;22.40;35.40;;;;;;111920;1258;49145;-62
2023/03/23 04:49:51;;;;;;;;;16.33;15.33;22.40;35.40;;;;;;111888;1257;50559;-63
2023/03/23 04:52:17;;;;;;;;;21.00;20.00;22.30;35.40;;;;;;111864;1255;47070;-64
2023/03/23 04:54:44;;;;;;;;;17.00;16.00;22.30;38.80;;;;;;111814;1260;56066;-62
2023/03/23 04:57:12;;;;;;;;;23.00;20.33;22.30;40.50;;;;;;111899;1259;53711;-65
2023/03/23 04:59:38;;;;;;;;;23.67;19.00;22.40;40.10;;;;;;111898;1259;49567;-66
2023/03/23 05:02:04;;;;;;;;;20.00;17.00;22.30;40.30;;;;;;111834;1259;49405;-64
2023/03/23 05:04:31;;;;;;;;;23.00;21.00;22.30;40.40;;;;;;111902;1259;46857;-63
2023/03/23 05:06:57;;;;;;;;;20.00;18.00;22.30;40.50;;;;;;111931;1259;56693;-63
2023/03/23 05:09:23;;;;;;;;;24.00;20.00;22.30;40.00;;;;;;111907;1259;54561;-63
2023/03/23 05:11:49;;;;;;;;;25.50;20.50;22.30;39.60;;;;;;111733;1259;49974;-65
2023/03/23 05:14:16;;;;;;;;;23.00;20.00;22.30;39.50;;;;;;111888;1259;48931;-63
2023/03/23 05:16:42;;;;;;;;;22.00;19.00;22.30;39.30;;;;;;111949;1259;46458;-63
2023/03/23 05:19:08;;;;;;;;;23.00;20.00;22.30;39.10;;;;;;111893;1259;56644;-65
2023/03/23 05:21:35;;;;;;;;;20.00;18.00;22.40;39.10;;;;;;111884;1259;53804;-69
2023/03/23 05:24:01;;;;;;;;;27.00;23.00;22.40;39.40;;;;;;111816;1260;49207;-68
2023/03/23 05:26:30;;;;;;;;;25.00;21.50;22.40;40.00;;;;;;111903;1260;49528;-69
2023/03/23 05:28:56;;;;;;;;;22.00;21.00;22.50;39.50;;;;;;111921;1259;46037;-68
2023/03/23 05:31:24;;;;;;;;;21.00;18.00;22.60;39.10;;;;;;111877;1259;56864;-66
2023/03/23 05:33:51;;;;;;;;;20.50;16.00;22.70;38.80;;;;;;111928;1255;53876;-67
2023/03/23 05:36:18;;;;;;;;;20.00;19.00;22.70;38.60;;;;;;111933;1258;49345;-65
2023/03/23 05:38:47;;;;;;;;;19.67;18.67;22.80;38.40;;;;;;111922;1255;50414;-64
2023/03/23 05:41:15;;;;;;;;;20.00;19.00;22.90;38.20;;;;;;111846;1259;47750;-70
2023/03/23 05:43:41;;;;;;;;;21.67;20.33;22.90;38.00;;;;;;111913;1255;57699;-66
2023/03/23 05:46:08;;;;;;;;;21.00;18.00;23.00;37.80;;;;;;111909;1258;54624;-66
2023/03/23 05:48:34;;;;;;;;;19.00;17.00;23.00;37.60;;;;;;111915;1259;49402;-67
2023/03/23 05:51:00;;;;;;;;;21.00;19.00;23.10;37.60;;;;;;111818;1260;49162;-72
2023/03/23 05:53:27;;;;;;;;;24.50;21.00;23.10;37.40;;;;;;111858;1259;46388;-73
2023/03/23 05:55:53;;;;;;;;;36.00;28.50;23.10;37.30;;;;;;111867;1259;57229;-70
2023/03/23 05:58:19;;;;;;;;;45.00;34.00;23.10;39.80;;;;;;111831;1261;54093;-68
2023/03/23 06:00:46;;;;;;;;;37.00;32.00;23.00;41.50;;;;;;111920;1259;49904;-67
2023/03/23 06:03:12;;;;;;;;;41.00;30.50;23.00;42.10;;;;;;111857;1260;49047;-67
2023/03/23 06:05:43;;;;;;;;;38.00;33.00;22.90;42.20;;;;;;111907;1260;46574;-69
2023/03/23 06:08:11;;;;;;;;;39.00;29.50;23.00;42.40;;;;;;111906;1255;57139;-68
2023/03/23 06:10:37;;;;;;;;;48.00;34.50;22.90;42.30;;;;;;111897;1259;55192;-69
2023/03/23 06:13:05;;;;;;;;;41.00;30.00;23.00;42.30;;;;;;111844;1260;49806;-69
2023/03/23 06:15:32;;;;;;;;;44.50;32.50;23.00;42.20;;;;;;111906;1259;50254;-68
2023/03/23 06:17:59;;;;;;;;;47.00;34.00;23.10;42.30;;;;;;111908;1259;46116;-70
2023/03/23 06:20:25;;;;;;;;;47.00;33.00;23.10;42.30;;;;;;111942;1259;56330;-68
2023/03/23 06:22:52;;;;;;;;;46.33;35.33;23.20;42.20;;;;;;111828;1260;54157;-67
2023/03/23 06:25:19;;;;;;;;;46.00;31.00;23.20;42.10;;;;;;111898;1259;49252;-66
2023/03/23 06:27:46;;;;;;;;;51.50;37.00;23.30;42.00;;;;;;111918;1255;50088;-66
2023/03/23 06:30:14;;;;;;;;;46.00;33.00;23.30;41.50;;;;;;111918;1259;46321;-65
2023/03/23 06:32:41;;;;;;;;;45.00;35.00;23.40;41.30;;;;;;111710;1259;56185;-66
2023/03/23 06:35:09;;;;;;;;;45.00;34.00;23.40;41.10;;;;;;111900;1259;53623;-66
2023/03/23 06:37:36;;;;;;;;;49.00;33.00;23.40;40.80;;;;;;111863;1259;50465;-66
2023/03/23 06:40:06;;;;;;;;;39.00;30.00;23.50;40.50;;;;;;111889;1259;49952;-65
2023/03/23 06:42:32;;;;;;;;;46.00;34.00;23.60;40.20;;;;;;111843;1260;46362;-66
2023/03/23 06:45:00;;;;;;;;;36.00;32.00;23.60;39.90;;;;;;111893;1260;56466;-64
2023/03/23 06:47:29;;;;;;;;;46.00;33.00;23.60;39.70;;;;;;111869;1257;54151;-68
2023/03/23 06:49:56;;;;;;;;;46.00;32.00;23.60;39.60;;;;;;111864;1259;49036;-66
2023/03/23 06:52:24;;;;;;;;;49.00;35.00;23.60;39.50;;;;;;111880;1259;49827;-66
2023/03/23 06:54:51;;;;;;;;;50.00;36.50;23.60;39.30;;;;;;111884;1259;46517;-65
2023/03/23 06:57:18;;;;;;;;;48.00;33.50;23.70;39.30;;;;;;111900;1257;56835;-66
2023/03/23 06:59:44;;;;;;;;;33.00;29.50;23.70;39.00;;;;;;111904;1259;53981;-64
2023/03/23 07:02:11;;;;;;;;;46.00;32.00;23.80;38.90;;;;;;111809;1257;49874;-67
2023/03/23 07:04:38;;;;;;;;;41.00;27.50;23.80;38.70;;;;;;111900;1259;49892;-66
2023/03/23 07:07:07;;;;;;;;;44.00;31.00;23.90;38.70;;;;;;111382;1259;639910;-64
2023/03/23 07:09:33;;;;;;;;;40.00;28.50;23.90;38.50;;;;;;111874;1260;57166;-64
2023/03/23 07:12:00;;;;;;;;;39.50;31.00;24.00;38.40;;;;;;111861;1255;55095;-66
2023/03/23 07:14:27;;;;;;;;;41.33;29.67;24.10;38.40;;;;;;111877;1259;50408;-66
2023/03/23 07:16:53;;;;;;;;;35.00;29.00;24.20;38.20;;;;;;111901;1260;49788;-65
2023/03/23 07:19:20;;;;;;;;;35.00;28.00;24.30;38.10;;;;;;111928;1259;46962;-66
2023/03/23 07:21:46;;;;;;;;;37.50;29.00;24.40;38.00;;;;;;111762;1260;56638;-65
2023/03/23 07:24:16;;;;;;;;;45.00;34.00;24.50;37.80;;;;;;111925;1260;54915;-64
2023/03/23 07:26:42;;;;;;;;;45.50;34.00;24.50;37.60;;;;;;111890;1260;50017;-66
2023/03/23 07:29:09;;;;;;;;;42.00;31.00;24.60;37.60;;;;;;111928;1259;49674;-65
2023/03/23 07:31:35;;;;;;;;;40.50;32.00;24.70;37.60;;;;;;111831;1255;46436;-65
2023/03/23 07:34:02;;;;;;;;;38.50;30.00;24.70;37.40;;;;;;111869;1259;56874;-65
2023/03/23 07:36:30;;;;;;;;;41.00;31.00;24.90;37.50;;;;;;111877;1260;54309;-65
2023/03/23 07:38:58;;;;;;;;;31.00;27.00;24.90;37.30;;;;;;111930;1259;50581;-66
2023/03/23 07:41:25;;;;;;;;;35.00;29.00;25.00;37.30;;;;;;111818;1257;49678;-65
2023/03/23 07:43:51;;;;;;;;;35.00;28.00;25.00;37.20;;;;;;111899;1260;46307;-65
2023/03/23 07:46:17;;;;;;;;;28.50;25.00;25.10;37.00;;;;;;111916;1259;57404;-65
2023/03/23 07:48:44;;;;;;;;;31.00;29.00;25.20;37.00;;;;;;111908;1259;54485;-66
2023/03/23 07:51:10;;;;;;;;;33.00;28.00;25.20;36.80;;;;;;111853;1260;49185;-65
2023/03/23 07:53:36;;;;;;;;;32.00;27.00;25.30;36.80;;;;;;111896;1259;49004;-66
2023/03/23 07:56:03;;;;;;;;;33.00;27.00;25.40;36.80;;;;;;111935;1257;46502;-64
2023/03/23 07:58:30;;;;;;;;;34.00;29.00;25.40;36.70;;;;;;111909;1256;58617;-65
2023/03/23 08:00:57;;;;;;;;;27.00;25.00;25.50;36.70;;;;;;111871;1260;54447;-64
2023/03/23 08:03:24;;;;;;;;;44.00;31.00;25.50;36.50;;;;;;111875;1259;49437;-66
2023/03/23 08:05:50;;;;;;;;;32.00;28.00;25.60;36.50;;;;;;111905;1259;49660;-67
2023/03/23 08:08:16;;;;;;;;;36.00;26.00;25.70;36.50;;;;;;111892;1259;46619;-66
2023/03/23 08:10:42;;;;;;;;;32.00;27.00;25.70;36.40;;;;;;111916;1259;56770;-67
2023/03/23 08:13:09;;;;;;;;;26.00;23.00;25.70;36.30;;;;;;111805;1258;54577;-67
2023/03/23 08:15:37;;;;;;;;;33.50;25.00;25.80;37.40;;;;;;111939;1259;50377;-67
2023/03/23 08:18:04;;;;;;;;;29.33;23.67;25.80;37.80;;;;;;111890;1259;49555;-66
2023/03/23 08:20:31;;;;;;;;;25.00;21.00;25.90;37.80;;;;;;111907;1256;46663;-64
2023/03/23 08:22:58;;;;;;;;;31.00;27.00;25.90;38.20;;;;;;111806;1260;56486;-65
2023/03/23 08:25:25;;;;;;;;;31.00;25.00;25.90;38.20;;;;;;111941;1259;53271;-66
2023/03/23 08:27:53;;;;;;;;;33.00;28.00;25.90;38.40;;;;;;111923;1260;50471;-65
2023/03/23 08:30:22;;;;;;;;;30.33;26.33;25.90;38.40;;;;;;111956;1255;49429;-63
2023/03/23 08:32:49;;;;;;;;;32.33;27.00;26.00;38.50;;;;;;111862;1260;46577;-64
2023/03/23 08:35:17;;;;;;;;;30.00;24.00;26.00;38.60;;;;;;111934;1259;56322;-62
2023/03/23 08:37:43;;;;;;;;;30.00;27.00;26.10;39.20;;;;;;111938;1259;53307;-64
2023/03/23 08:40:11;;;;;;;;;33.00;30.00;26.10;39.20;;;;;;111913;1255;49614;-64
2023/03/23 08:42:38;;;;;;;;;28.00;26.00;26.20;38.60;;;;;;111859;1260;49611;-63
2023/03/23 08:45:07;;;;;;;;;28.00;23.50;26.20;38.60;;;;;;111922;1260;47847;-64
2023/03/23 08:47:34;;;;;;;;;32.50;24.00;26.30;38.70;;;;;;111904;1260;57017;-64
2023/03/23 08:50:02;;;;;;;;;28.00;26.00;26.30;38.60;;;;;;111908;1259;53683;-62
2023/03/23 08:52:29;;;;;;;;;32.33;29.00;26.30;38.60;;;;;;111861;1259;50386;-64
2023/03/23 08:54:56;;;;;;;;;28.00;24.00;26.40;38.60;;;;;;111826;1255;49583;-65
2023/03/23 08:57:24;;;;;;;;;26.00;24.00;26.40;38.50;;;;;;111932;1260;46228;-66
2023/03/23 08:59:51;;;;;;;;;28.00;24.00;26.50;38.50;;;;;;111900;1255;56534;-65
2023/03/23 09:02:17;;;;;;;;;31.00;25.33;26.50;38.50;;;;;;111857;1259;54103;-66
2023/03/23 09:04:44;;;;;;;;;26.00;22.00;26.50;38.40;;;;;;111918;1259;49467;-66
2023/03/23 09:07:12;;;;;;;;;29.00;28.00;26.60;38.60;;;;;;111928;1259;49569;-64
2023/03/23 09:09:39;;;;;;;;;;;26.60;38.40;;;;;;111898;1259;46880;-66
2023/03/23 09:12:06;;;;;;;;;30.50;27.00;26.60;38.40;;;;;;111877;1259;57574;-63
2023/03/23 09:14:33;;;;;;;;;25.50;21.50;26.70;38.60;;;;;;111905;1259;54006;-63
2023/03/23 09:16:59;;;;;;;;;26.00;23.00;26.80;38.50;;;;;;111925;1259;49757;-65
2023/03/23 09:19:25;;;;;;;;;30.00;27.00;26.90;38.20;;;;;;111923;1258;49083;-64
2023/03/23 09:21:51;;;;;;;;;29.00;24.50;26.90;38.10;;;;;;111878;1259;46700;-66
2023/03/23 09:24:18;;;;;;;;;29.50;28.50;26.90;38.00;;;;;;111884;1260;58126;-63
2023/03/23 09:26:45;;;;;;;;;27.00;25.00;27.00;38.00;;;;;;111931;1259;55035;-65
2023/03/23 09:29:12;;;;;;;;;26.50;25.00;27.00;38.00;;;;;;111911;1258;49876;-64
2023/03/23 09:31:40;;;;;;;;;26.50;22.00;27.10;38.00;;;;;;111837;1259;49640;-64
2023/03/23 09:34:07;;;;;;;;;30.00;25.33;27.10;37.80;;;;;;111928;1259;46269;-65
2023/03/23 09:36:33;;;;;;;;;25.00;24.00;27.20;37.90;;;;;;111915;1259;57555;-64
2023/03/23 09:38:59;;;;;;;;;27.00;25.33;27.20;37.80;;;;;;111924;1259;54068;-64
2023/03/23 09:41:49;;;;;;;;;28.00;24.00;27.20;37.70;;;;;;111828;1259;49973;-65
2023/03/23 09:44:30;;;;;;;;;28.00;25.00;27.30;37.70;;;;;;111782;1259;50584;-65
2023/03/23 09:47:15;;;;;;;;;28.33;22.00;27.40;37.70;;;;;;111965;1255;48494;-65
2023/03/23 09:49:48;;;;;;;;;23.50;22.50;27.40;37.70;;;;;;111926;1259;56304;-65
2023/03/23 09:52:16;;;;;;;;;24.00;21.67;27.50;36.90;;;;;;111775;1259;54207;-67
2023/03/23 09:54:48;;;;;;;;;21.00;19.00;27.50;36.90;;;;;;111909;1259;50433;-64
2023/03/23 09:57:26;;;;;;;;;22.50;21.50;27.50;36.40;;;;;;111848;1261;49660;-65
2023/03/23 10:00:09;;;;;;;;;24.00;21.50;27.40;36.40;;;;;;111857;1258;46741;-66
2023/03/23 10:02:48;;;;;;;;;28.50;22.00;27.40;36.40;;;;;;111767;1260;56122;-66
2023/03/23 10:05:31;;;;;;;;;21.00;20.00;27.40;36.40;;;;;;111847;1257;53994;-65
2023/03/23 10:07:58;;;;;;;;;;;27.30;37.00;;;;;;111861;1260;49921;-65
2023/03/23 10:10:32;;;;;;;;;28.33;24.67;27.30;36.40;;;;;;111908;1257;48518;-65
2023/03/23 10:13:21;;;;;;;;;23.50;21.50;27.30;36.30;;;;;;111783;1260;46811;-63
2023/03/23 10:15:48;;;;;;;;;21.67;20.33;27.40;36.50;;;;;;111858;1260;56380;-63
2023/03/23 10:18:17;;;;;;;;;25.00;21.00;27.50;37.00;;;;;;111813;1259;54678;-63
2023/03/23 10:20:57;;;;;;;;;24.00;22.00;27.50;36.60;;;;;;111947;1258;50049;-67
2023/03/23 10:23:49;;;;;;;;;26.00;23.00;27.60;36.60;;;;;;111862;1259;49703;-67
2023/03/23 10:26:24;;;;;;;;;24.00;23.00;27.60;36.50;;;;;;111932;1259;47149;-66
2023/03/23 10:28:55;;;;;;;;;24.00;23.00;27.60;36.50;;;;;;111904;1259;57255;-66
2023/03/23 10:31:26;;;;;;;;;25.00;21.00;27.50;36.60;;;;;;111841;1259;54152;-66
2023/03/23 10:33:56;;;;;;;;;24.00;21.00;27.50;36.80;;;;;;111827;1260;49256;-65
2023/03/23 10:36:51;;;;;;;;;21.00;19.00;27.50;36.70;;;;;;111835;1261;49518;-65
2023/03/23 10:39:22;;;;;;;;;24.00;22.00;27.50;36.80;;;;;;111632;1259;47044;-66
2023/03/23 10:41:48;;;;;;;;;26.33;22.67;27.60;36.70;;;;;;111785;1260;56184;-66
2023/03/23 10:44:18;;;;;;;;;22.00;21.00;27.60;36.60;;;;;;111907;1259;55025;-66
2023/03/23 10:46:48;;;;;;;;;24.00;19.00;27.60;36.60;;;;;;111901;1260;50271;-66
2023/03/23 10:49:26;;;;;;;;;23.00;21.00;27.70;36.60;;;;;;111930;1259;49873;-65
2023/03/23 10:52:22;;;;;;;;;27.00;23.33;27.70;36.60;;;;;;111739;1260;46162;-65
2023/03/23 10:55:03;;;;;;;;;23.50;21.00;27.70;36.60;;;;;;111906;1259;56851;-66
2023/03/23 10:57:33;;;;;;;;;29.00;25.00;27.70;36.70;;;;;;111897;1259;53509;-66
2023/03/23 11:00:06;;;;;;;;;25.00;22.00;27.70;36.50;;;;;;111916;1259;49064;-64
2023/03/23 11:02:45;;;;;;;;;23.00;20.50;27.70;36.20;;;;;;111840;1260;49221;-64
2023/03/23 11:05:14;;;;;;;;;26.00;23.00;27.70;36.40;;;;;;111908;1259;46301;-67
2023/03/23 11:07:41;;;;;;;;;25.67;22.33;27.80;36.90;;;;;;111931;1259;56604;-70
2023/03/23 11:10:23;;;;;;;;;26.50;22.00;27.80;37.10;;;;;;111829;1260;54567;-71
2023/03/23 11:12:50;;;;;;;;;24.00;22.00;27.90;37.00;;;;;;111835;1259;50642;-70
2023/03/23 11:15:22;;;;;;;;;21.00;20.00;28.00;36.70;;;;;;111945;1259;49012;-70
2023/03/23 11:18:03;;;;;;;;;25.33;22.00;28.10;36.60;;;;;;111980;1259;46662;-71
2023/03/23 11:20:35;;;;;;;;;21.00;20.00;28.10;36.40;;;;;;111977;1260;57593;-70
2023/03/23 11:23:20;;;;;;;;;23.00;20.00;28.10;36.30;;;;;;111804;1256;53525;-70
2023/03/23 11:26:21;;;;;;;;;24.00;22.00;28.20;36.50;;;;;;111827;1260;51152;-70
2023/03/23 11:29:16;;;;;;;;;21.00;21.00;28.20;36.40;;;;;;111904;1260;49281;-70
2023/03/23 11:31:44;;;;;;;;;27.50;26.50;28.20;36.40;;;;;;111739;1260;46581;-71
2023/03/23 11:34:20;;;;;;;;;22.00;21.00;28.20;36.40;;;;;;111835;1260;57680;-70
2023/03/23 11:37:00;;;;;;;;;26.00;23.50;28.20;36.40;;;;;;111921;1259;54467;-70
2023/03/23 11:39:45;;;;;;;;;28.50;27.00;28.20;36.40;;;;;;111604;1260;49753;-70
2023/03/23 11:42:18;;;;;;;;;25.00;21.00;28.20;36.50;;;;;;111863;1259;49469;-71
2023/03/23 11:44:45;;;;;;;;;23.50;20.50;28.20;36.50;;;;;;111910;1260;46725;-71
2023/03/23 11:47:17;;;;;;;;;24.00;21.00;28.20;36.50;;;;;;111895;1259;56542;-70
2023/03/23 11:50:04;;;;;;;;;23.00;22.00;28.20;36.50;;;;;;111914;1259;54580;-71
2023/03/23 11:52:49;;;;;;;;;25.00;20.33;28.20;36.50;;;;;;111810;1257;49007;-70
2023/03/23 11:55:23;;;;;;;;;24.00;20.00;28.20;36.50;;;;;;111910;1259;49424;-70
2023/03/23 11:57:49;;;;;;;;;20.00;19.00;28.20;36.50;;;;;;111840;1260;46045;-71
2023/03/23 12:00:18;;;;;;;;;22.00;20.00;28.20;36.60;;;;;;111924;1260;56684;-71
2023/03/23 12:03:23;;;;;;;;;23.00;22.00;28.20;36.50;;;;;;111762;1260;54509;-70
2023/03/23 12:06:28;;;;;;;;;23.00;22.00;28.10;36.50;;;;;;111933;1260;49625;-70
2023/03/23 12:09:16;;;;;;;;;20.00;19.00;28.10;36.60;;;;;;111765;1260;50385;-71
2023/03/23 12:12:00;;;;;;;;;24.00;21.50;28.10;36.70;;;;;;111881;1259;47798;-71
2023/03/23 12:14:36;;;;;;;;;23.00;20.00;28.10;36.70;;;;;;111907;1259;56194;-71
2023/03/23 12:17:17;;;;;;;;;22.50;21.50;28.00;36.70;;;;;;111949;1259;54026;-71
2023/03/23 12:19:51;;;;;;;;;19.00;18.00;28.00;36.70;;;;;;111908;1255;49609;-70
2023/03/23 12:22:50;;;;;;;;;22.67;20.00;28.00;36.80;;;;;;111836;1259;49544;-71
2023/03/23 12:25:29;;;;;;;;;18.00;16.50;28.00;36.90;;;;;;111920;1259;46841;-70
2023/03/23 12:28:06;;;;;;;;;26.00;25.00;28.00;36.80;;;;;;111923;1259;56475;-70
2023/03/23 12:30:38;;;;;;;;;22.00;20.00;27.90;36.90;;;;;;111914;1259;54641;-70
2023/03/23 12:33:11;;;;;;;;;23.50;21.00;27.90;36.90;;;;;;111822;1260;49527;-70
2023/03/23 12:35:45;;;;;;;;;21.00;20.00;27.90;36.90;;;;;;111897;1255;50569;-70